createdAt,value
2019-01-16T00:00:22.426Z,5.67
2019-01-16T00:02:33.641Z,5.43
2019-01-16T00:04:53.944Z,5.70
2019-01-16T00:07:17.272Z,6.67
2019-01-16T00:09:38.945Z,6.43
2019-01-16T00:11:50.011Z,8.07
2019-01-16T00:14:04.322Z,7.67
2019-01-16T00:16:24.798Z,6.83
2019-01-16T00:18:35.866Z,4.10
2019-01-16T00:20:53.401Z,7.20
2019-01-16T00:23:10.770Z,5.07
2019-01-16T00:25:18.638Z,8.73
2019-01-16T00:27:33.053Z,6.77
2019-01-16T00:29:47.260Z,5.63
2019-01-16T00:31:52.612Z,7.27
2019-01-16T00:33:57.850Z,5.90
2019-01-16T00:36:14.979Z,8.40
2019-01-16T00:38:23.069Z,5.43
2019-01-16T00:40:28.303Z,6.47
2019-01-16T00:42:33.557Z,5.27
2019-01-16T00:44:38.781Z,7.03
2019-01-16T00:46:44.027Z,8.27
2019-01-16T00:49:05.483Z,5.70
2019-01-16T00:51:10.755Z,4.20
2019-01-16T00:53:28.170Z,9.33
2019-01-16T00:55:35.800Z,3.70
2019-01-16T00:57:41.062Z,6.17
2019-01-16T00:59:58.527Z,6.87
2019-01-16T01:02:18.906Z,4.17
2019-01-16T01:04:27.127Z,13.27
2019-01-16T01:06:32.396Z,5.43
2019-01-16T01:08:40.591Z,6.93
2019-01-16T01:10:49.618Z,6.80
2019-01-16T01:13:10.827Z,8.13
2019-01-16T01:15:16.068Z,5.47
2019-01-16T01:17:21.358Z,5.80
2019-01-16T01:19:42.946Z,7.03
2019-01-16T01:21:53.992Z,10.53
2019-01-16T01:23:59.325Z,5.53
2019-01-16T01:26:04.538Z,6.70
2019-01-16T01:28:12.458Z,8.03
2019-01-16T01:30:29.382Z,6.50
2019-01-16T01:32:34.637Z,7.03
2019-01-16T01:34:45.590Z,7.33
2019-01-16T01:36:50.823Z,5.67
2019-01-16T01:39:12.331Z,8.10
2019-01-16T01:41:26.122Z,7.97
2019-01-16T01:43:31.362Z,6.23
2019-01-16T01:45:36.738Z,8.50
2019-01-16T01:47:54.082Z,6.43
2019-01-16T01:50:05.048Z,5.37
2019-01-16T01:52:10.289Z,5.10
2019-01-16T01:54:18.202Z,9.40
2019-01-16T01:56:35.485Z,8.43
2019-01-16T01:58:40.714Z,7.70
2019-01-16T02:01:04.229Z,8.53
2019-01-16T02:03:15.306Z,7.67
2019-01-16T02:05:23.426Z,5.27
2019-01-16T02:07:45.070Z,8.03
2019-01-16T02:10:06.839Z,8.87
2019-01-16T02:12:28.190Z,4.87
2019-01-16T02:14:33.585Z,7.50
2019-01-16T02:16:38.831Z,5.10
2019-01-16T02:18:55.669Z,8.77
2019-01-16T02:21:12.974Z,8.57
2019-01-16T02:23:30.307Z,5.97
2019-01-16T02:25:44.499Z,7.43
2019-01-16T02:27:49.739Z,6.90
2019-01-16T02:30:11.335Z,9.00
2019-01-16T02:32:19.183Z,6.03
2019-01-16T02:34:33.298Z,10.57
2019-01-16T02:36:53.272Z,12.97
2019-01-16T02:39:01.482Z,8.03
2019-01-16T02:41:09.719Z,6.33
2019-01-16T02:43:20.871Z,5.83
2019-01-16T02:45:44.082Z,5.60
2019-01-16T02:48:04.399Z,5.67
2019-01-16T02:50:09.939Z,4.23
2019-01-16T02:52:27.330Z,9.80
2019-01-16T02:54:35.353Z,5.03
2019-01-16T02:56:40.596Z,9.17
2019-01-16T02:58:48.311Z,7.00
2019-01-16T03:01:02.563Z,7.47
2019-01-16T03:03:07.935Z,6.90
2019-01-16T03:05:18.779Z,8.43
2019-01-16T03:07:30.100Z,7.53
2019-01-16T03:09:37.879Z,5.33
2019-01-16T03:11:45.895Z,8.00
2019-01-16T03:14:03.505Z,9.37
2019-01-16T03:16:08.746Z,5.40
2019-01-16T03:18:28.784Z,5.97
2019-01-16T03:20:36.846Z,8.37
2019-01-16T03:22:42.104Z,7.93
2019-01-16T03:25:05.556Z,7.77
2019-01-16T03:27:16.477Z,5.60
2019-01-16T03:29:21.922Z,10.80
2019-01-16T03:31:32.756Z,7.80
2019-01-16T03:33:54.567Z,6.30
2019-01-16T03:36:08.528Z,10.47
2019-01-16T03:38:13.758Z,6.90
2019-01-16T03:40:19.031Z,5.97
2019-01-16T03:42:32.697Z,8.47
2019-01-16T03:44:56.083Z,5.77
2019-01-16T03:47:06.826Z,9.57
2019-01-16T03:49:14.777Z,7.27
2019-01-16T03:51:25.882Z,8.83
2019-01-16T03:53:31.127Z,7.40
2019-01-16T03:55:36.374Z,6.03
2019-01-16T03:57:47.092Z,8.47
2019-01-16T04:00:07.374Z,5.63
2019-01-16T04:02:18.403Z,4.93
2019-01-16T04:04:23.632Z,6.30
2019-01-16T04:06:31.612Z,5.43
2019-01-16T04:08:42.733Z,7.70
2019-01-16T04:10:53.811Z,6.70
2019-01-16T04:13:01.580Z,8.10
2019-01-16T04:15:24.575Z,6.17
2019-01-16T04:17:32.271Z,6.80
2019-01-16T04:19:37.589Z,5.73
2019-01-16T04:21:42.903Z,8.63
2019-01-16T04:23:50.829Z,8.33
2019-01-16T04:26:05.189Z,7.17
2019-01-16T04:28:19.271Z,7.63
2019-01-16T04:30:30.230Z,8.40
2019-01-16T04:32:41.415Z,7.37
2019-01-16T04:34:46.650Z,7.60
2019-01-16T04:36:54.611Z,7.03
2019-01-16T04:38:59.846Z,6.30
2019-01-16T04:41:05.076Z,5.23
2019-01-16T04:43:13.009Z,8.70
2019-01-16T04:45:18.241Z,8.70
2019-01-16T04:47:29.677Z,5.77
2019-01-16T04:49:52.855Z,6.83
2019-01-16T04:52:00.588Z,8.03
2019-01-16T04:54:22.058Z,6.20
2019-01-16T04:56:33.407Z,7.63
2019-01-16T04:58:56.699Z,8.17
2019-01-16T05:01:01.930Z,9.33
2019-01-16T05:03:07.297Z,8.70
2019-01-16T05:05:18.126Z,9.47
2019-01-16T05:07:23.374Z,9.37
2019-01-16T05:09:28.855Z,10.03
2019-01-16T05:11:34.090Z,14.03
2019-01-16T05:13:45.342Z,11.20
2019-01-16T05:15:59.354Z,9.70
2019-01-16T05:18:04.587Z,12.53
2019-01-16T05:20:26.965Z,7.67
2019-01-16T05:22:43.923Z,9.83
2019-01-16T05:24:49.198Z,8.93
2019-01-16T05:27:03.695Z,8.67
2019-01-16T05:29:15.035Z,8.20
2019-01-16T05:31:22.881Z,10.00
2019-01-16T05:33:28.110Z,8.10
2019-01-16T05:35:36.296Z,14.90
2019-01-16T05:37:41.556Z,11.97
2019-01-16T05:40:01.620Z,12.77
2019-01-16T05:42:09.756Z,12.70
2019-01-16T05:44:17.731Z,9.70
2019-01-16T05:46:22.994Z,11.67
2019-01-16T05:48:30.740Z,9.97
2019-01-16T05:50:48.202Z,11.43
2019-01-16T05:53:05.405Z,13.97
2019-01-16T05:55:26.724Z,11.80
2019-01-16T05:57:46.835Z,17.47
2019-01-16T05:59:54.614Z,18.43
2019-01-16T06:02:15.901Z,20.53
2019-01-16T06:04:23.936Z,17.23
2019-01-16T06:06:29.187Z,15.83
2019-01-16T06:08:43.506Z,15.00
2019-01-16T06:11:04.939Z,17.20
2019-01-16T06:13:15.734Z,15.53
2019-01-16T06:15:26.562Z,15.00
2019-01-16T06:17:37.673Z,17.50
2019-01-16T06:19:59.235Z,14.67
2019-01-16T06:22:04.490Z,18.40
2019-01-16T06:24:21.838Z,14.33
2019-01-16T06:26:27.107Z,10.67
2019-01-16T06:28:48.643Z,12.50
2019-01-16T06:30:59.351Z,12.00
2019-01-16T06:33:04.759Z,13.53
2019-01-16T06:35:12.843Z,17.63
2019-01-16T06:37:20.639Z,16.37
2019-01-16T06:39:37.631Z,15.20
2019-01-16T06:41:42.924Z,15.13
2019-01-16T06:43:56.725Z,16.17
2019-01-16T06:46:02.106Z,18.37
2019-01-16T06:48:07.379Z,20.33
2019-01-16T06:50:18.443Z,15.87
2019-01-16T06:52:23.670Z,16.70
2019-01-16T06:54:40.829Z,20.57
2019-01-16T06:56:58.172Z,14.17
2019-01-16T06:59:05.894Z,16.10
2019-01-16T07:01:13.971Z,15.07
2019-01-16T07:03:31.355Z,15.90
2019-01-16T07:05:45.283Z,15.70
2019-01-16T07:07:50.593Z,16.57
2019-01-16T07:10:04.678Z,17.60
2019-01-16T07:12:28.269Z,14.50
2019-01-16T07:14:42.183Z,18.10
2019-01-16T07:16:47.419Z,19.60
2019-01-16T07:18:52.659Z,19.27
2019-01-16T07:21:03.879Z,19.97
2019-01-16T07:23:09.147Z,20.73
2019-01-16T07:25:26.170Z,18.80
2019-01-16T07:27:43.653Z,20.20
2019-01-16T07:29:51.410Z,17.50
2019-01-16T07:32:05.730Z,22.37
2019-01-16T07:34:25.914Z,17.03
2019-01-16T07:36:43.297Z,18.73
2019-01-16T07:39:04.445Z,21.90
2019-01-16T07:41:09.738Z,20.20
2019-01-16T07:43:20.666Z,23.97
2019-01-16T07:45:28.362Z,24.87
2019-01-16T07:47:36.972Z,24.73
2019-01-16T07:49:58.661Z,23.53
2019-01-16T07:52:09.733Z,22.63
2019-01-16T07:54:17.558Z,22.03
2019-01-16T07:56:22.814Z,21.60
2019-01-16T07:58:28.069Z,22.70
2019-01-16T08:00:48.557Z,23.13
2019-01-16T08:02:53.827Z,22.80
2019-01-16T08:05:14.982Z,31.40
2019-01-16T08:07:22.809Z,22.07
2019-01-16T08:09:28.029Z,25.97
2019-01-16T08:11:49.869Z,21.90
2019-01-16T08:14:00.923Z,22.57
2019-01-16T08:16:09.200Z,24.30
2019-01-16T08:18:20.227Z,25.53
2019-01-16T08:20:25.538Z,25.53
2019-01-16T08:22:46.987Z,24.43
2019-01-16T08:25:08.307Z,26.67
2019-01-16T08:27:13.562Z,29.03
2019-01-16T08:29:30.687Z,38.57
2019-01-16T08:31:36.037Z,37.30
2019-01-16T08:33:47.369Z,36.03
2019-01-16T08:36:04.455Z,43.97
2019-01-16T08:38:21.377Z,36.37
2019-01-16T08:40:29.334Z,30.00
2019-01-16T08:42:46.132Z,29.83
2019-01-16T08:44:54.405Z,26.17
2019-01-16T08:47:16.061Z,25.60
2019-01-16T08:49:37.481Z,25.63
2019-01-16T08:51:48.238Z,25.23
2019-01-16T08:53:53.474Z,25.73
2019-01-16T08:56:07.883Z,30.87
2019-01-16T08:58:13.191Z,28.27
2019-01-16T09:00:34.435Z,24.67
2019-01-16T09:02:55.929Z,28.70
2019-01-16T09:05:01.174Z,29.50
2019-01-16T09:07:22.705Z,31.73
2019-01-16T09:09:40.071Z,32.10
2019-01-16T09:11:53.852Z,58.27
2019-01-16T09:14:05.027Z,33.07
2019-01-16T09:16:15.973Z,35.57
2019-01-16T09:18:23.914Z,37.73
2019-01-16T09:20:29.158Z,38.30
2019-01-16T09:22:34.425Z,37.40
2019-01-16T09:24:48.434Z,35.77
2019-01-16T09:26:56.187Z,35.53
2019-01-16T09:29:10.261Z,34.50
2019-01-16T09:31:30.332Z,33.60
2019-01-16T09:33:47.423Z,35.80
2019-01-16T09:35:58.567Z,38.37
2019-01-16T09:38:12.722Z,37.13
2019-01-16T09:40:27.168Z,32.17
2019-01-16T09:42:32.410Z,34.97
2019-01-16T09:44:37.771Z,28.63
2019-01-16T09:46:54.690Z,32.40
2019-01-16T09:49:05.814Z,36.93
2019-01-16T09:51:13.557Z,32.93
2019-01-16T09:53:35.023Z,28.67
2019-01-16T09:55:40.344Z,29.00
2019-01-16T09:58:03.554Z,27.67
2019-01-16T10:00:11.775Z,28.10
2019-01-16T10:02:19.565Z,33.77
2019-01-16T10:04:30.656Z,33.53
2019-01-16T10:06:38.722Z,31.57
2019-01-16T10:08:47.082Z,30.93
2019-01-16T10:10:58.162Z,38.10
2019-01-16T10:13:06.229Z,36.77
2019-01-16T10:15:28.222Z,37.60
2019-01-16T10:17:36.162Z,35.83
2019-01-16T10:19:50.301Z,42.13
2019-01-16T10:22:10.451Z,34.53
2019-01-16T10:24:30.663Z,36.67
2019-01-16T10:26:44.737Z,38.03
2019-01-16T10:29:08.263Z,39.93
2019-01-16T10:31:13.548Z,34.27
2019-01-16T10:33:18.783Z,35.67
2019-01-16T10:35:24.058Z,36.83
2019-01-16T10:37:31.834Z,43.00
2019-01-16T10:39:37.098Z,36.70
2019-01-16T10:41:44.931Z,32.40
2019-01-16T10:44:01.962Z,31.10
2019-01-16T10:46:23.416Z,39.37
2019-01-16T10:48:28.642Z,39.60
2019-01-16T10:50:39.646Z,36.23
2019-01-16T10:52:50.607Z,34.63
2019-01-16T10:55:04.743Z,33.27
2019-01-16T10:57:28.279Z,36.17
2019-01-16T10:59:36.374Z,34.33
2019-01-16T11:01:58.264Z,33.63
2019-01-16T11:04:06.051Z,34.93
2019-01-16T11:06:19.944Z,33.37
2019-01-16T11:08:41.620Z,33.77
2019-01-16T11:10:46.850Z,34.37
2019-01-16T11:12:52.122Z,32.80
2019-01-16T11:14:59.901Z,32.47
2019-01-16T11:17:05.278Z,30.63
2019-01-16T11:19:10.570Z,31.00
2019-01-16T11:21:32.063Z,29.63
2019-01-16T11:23:40.016Z,29.77
2019-01-16T11:26:01.117Z,29.47
2019-01-16T11:28:21.467Z,28.77
2019-01-16T11:30:42.948Z,31.57
2019-01-16T11:32:51.152Z,28.93
2019-01-16T11:35:12.697Z,32.17
2019-01-16T11:37:34.234Z,29.03
2019-01-16T11:39:39.465Z,31.13
2019-01-16T11:41:50.818Z,32.90
2019-01-16T11:43:58.722Z,30.43
2019-01-16T11:46:06.411Z,30.53
2019-01-16T11:48:17.298Z,32.17
2019-01-16T11:50:31.007Z,32.13
2019-01-16T11:52:42.265Z,28.57
2019-01-16T11:54:50.041Z,30.17
2019-01-16T11:57:03.973Z,29.97
2019-01-16T11:59:25.887Z,27.30
2019-01-16T12:01:37.110Z,29.40
2019-01-16T12:03:42.375Z,27.33
2019-01-16T12:05:50.522Z,27.17
2019-01-16T12:07:55.741Z,29.57
2019-01-16T12:10:06.878Z,29.03
2019-01-16T12:12:28.156Z,26.40
2019-01-16T12:14:33.402Z,24.50
2019-01-16T12:16:54.947Z,28.77
2019-01-16T12:19:00.205Z,24.30
2019-01-16T12:21:08.075Z,28.53
2019-01-16T12:23:16.220Z,24.40
2019-01-16T12:25:24.247Z,24.43
2019-01-16T12:27:32.146Z,23.57
2019-01-16T12:29:37.423Z,27.00
2019-01-16T12:31:51.686Z,24.30
2019-01-16T12:33:56.941Z,23.63
2019-01-16T12:36:14.263Z,24.47
2019-01-16T12:38:35.758Z,25.70
2019-01-16T12:40:41.055Z,24.90
2019-01-16T12:43:02.269Z,21.83
2019-01-16T12:45:14.579Z,26.83
2019-01-16T12:47:25.546Z,23.47
2019-01-16T12:49:46.088Z,23.67
2019-01-16T12:51:51.350Z,29.27
2019-01-16T12:53:59.016Z,23.70
2019-01-16T12:56:04.307Z,22.33
2019-01-16T12:58:13.315Z,23.53
2019-01-16T13:00:17.238Z,24.83
2019-01-16T13:02:22.514Z,21.60
2019-01-16T13:04:30.262Z,27.50
2019-01-16T13:06:38.390Z,23.00
2019-01-16T13:08:52.263Z,26.67
2019-01-16T13:11:00.349Z,26.00
2019-01-16T13:13:11.345Z,25.67
2019-01-16T13:15:32.725Z,25.57
2019-01-16T13:17:54.314Z,23.57
2019-01-16T13:20:08.453Z,26.50
2019-01-16T13:22:29.818Z,23.20
2019-01-16T13:24:43.619Z,24.23
2019-01-16T13:27:04.954Z,26.77
2019-01-16T13:29:12.642Z,24.43
2019-01-16T13:31:23.911Z,24.83
2019-01-16T13:33:34.750Z,20.77
2019-01-16T13:35:48.768Z,20.97
2019-01-16T13:37:59.630Z,22.27
2019-01-16T13:40:06.432Z,20.07
2019-01-16T13:42:14.098Z,20.37
2019-01-16T13:44:22.330Z,19.27
2019-01-16T13:46:27.563Z,21.90
2019-01-16T13:48:41.470Z,19.23
2019-01-16T13:50:55.493Z,18.90
2019-01-16T13:53:00.724Z,20.13
2019-01-16T13:55:13.422Z,20.70
2019-01-16T13:57:27.666Z,20.37
2019-01-16T13:59:41.546Z,22.40
2019-01-16T14:01:49.882Z,23.83
2019-01-16T14:03:55.128Z,18.50
2019-01-16T14:06:03.199Z,19.63
2019-01-16T14:08:23.383Z,19.97
2019-01-16T14:10:31.214Z,21.10
2019-01-16T14:12:36.446Z,22.53
2019-01-16T14:14:41.692Z,18.37
2019-01-16T14:16:52.520Z,18.47
2019-01-16T14:19:13.779Z,17.33
2019-01-16T14:21:30.904Z,19.40
2019-01-16T14:23:36.144Z,25.87
2019-01-16T14:25:57.491Z,21.83
2019-01-16T14:28:02.722Z,19.80
2019-01-16T14:30:10.899Z,18.07
2019-01-16T14:32:16.178Z,19.53
2019-01-16T14:34:37.591Z,18.37
2019-01-16T14:36:45.897Z,19.47
2019-01-16T14:38:51.155Z,18.43
2019-01-16T14:41:13.009Z,17.80
2019-01-16T14:43:21.015Z,19.20
2019-01-16T14:45:26.274Z,19.83
2019-01-16T14:47:37.012Z,20.93
2019-01-16T14:49:48.326Z,22.53
2019-01-16T14:51:59.754Z,21.47
2019-01-16T14:54:07.835Z,19.37
2019-01-16T14:56:29.388Z,20.20
2019-01-16T14:58:40.674Z,19.00
2019-01-16T15:00:51.642Z,19.33
2019-01-16T15:03:05.787Z,18.20
2019-01-16T15:05:15.243Z,19.40
2019-01-16T15:07:20.517Z,18.07
2019-01-16T15:09:34.774Z,17.47
2019-01-16T15:11:45.655Z,15.83
2019-01-16T15:13:50.920Z,16.93
2019-01-16T15:16:02.203Z,19.20
2019-01-16T15:18:09.875Z,22.20
2019-01-16T15:20:31.807Z,24.47
2019-01-16T15:22:55.247Z,33.17
2019-01-16T15:25:09.226Z,28.33
2019-01-16T15:27:23.150Z,23.97
2019-01-16T15:29:37.517Z,24.37
2019-01-16T15:31:48.547Z,19.70
2019-01-16T15:34:11.931Z,22.00
2019-01-16T15:36:20.102Z,15.47
2019-01-16T15:38:36.934Z,18.60
2019-01-16T15:40:58.197Z,21.00
2019-01-16T15:43:09.349Z,19.33
2019-01-16T15:45:26.450Z,16.20
2019-01-16T15:47:37.314Z,17.03
2019-01-16T15:49:42.575Z,15.03
2019-01-16T15:51:47.809Z,19.10
2019-01-16T15:53:53.046Z,16.53
2019-01-16T15:55:58.333Z,16.23
2019-01-16T15:58:09.408Z,14.70
2019-01-16T16:00:14.783Z,15.10
2019-01-16T16:02:22.955Z,16.30
2019-01-16T16:04:43.033Z,16.17
2019-01-16T16:07:03.118Z,17.80
2019-01-16T16:09:12.749Z,26.80
2019-01-16T16:11:26.783Z,18.23
2019-01-16T16:13:34.768Z,15.00
2019-01-16T16:16:05.118Z,19.10
2019-01-16T16:18:10.354Z,18.03
2019-01-16T16:20:15.619Z,16.50
2019-01-16T16:22:33.131Z,17.60
2019-01-16T16:24:50.239Z,16.77
2019-01-16T16:27:07.102Z,19.57
2019-01-16T16:29:21.191Z,21.17
2019-01-16T16:31:26.542Z,19.87
2019-01-16T16:33:34.538Z,19.53
2019-01-16T16:35:42.526Z,17.83
2019-01-16T16:37:47.840Z,23.40
2019-01-16T16:39:53.078Z,18.83
2019-01-16T16:41:58.387Z,21.60
2019-01-16T16:44:06.346Z,20.63
2019-01-16T16:46:20.216Z,19.17
2019-01-16T16:48:28.494Z,21.87
2019-01-16T16:50:36.529Z,21.20
2019-01-16T16:52:50.426Z,25.13
2019-01-16T16:54:58.331Z,21.23
2019-01-16T16:57:03.610Z,22.03
2019-01-16T16:59:20.869Z,19.93
2019-01-16T17:01:28.650Z,21.43
2019-01-16T17:03:50.315Z,21.33
2019-01-16T17:06:04.302Z,22.50
2019-01-16T17:08:15.402Z,24.20
2019-01-16T17:10:33.112Z,21.40
2019-01-16T17:12:54.946Z,22.20
2019-01-16T17:15:18.622Z,24.67
2019-01-16T17:17:23.875Z,23.23
2019-01-16T17:19:31.996Z,30.43
2019-01-16T17:21:37.244Z,38.93
2019-01-16T17:23:48.144Z,38.20
2019-01-16T17:26:02.042Z,35.00
2019-01-16T17:28:19.024Z,35.97
2019-01-16T17:30:27.002Z,37.43
2019-01-16T17:32:37.848Z,39.20
2019-01-16T17:34:48.845Z,54.77
2019-01-16T17:36:54.077Z,66.20
2019-01-16T17:39:11.338Z,53.73
2019-01-16T17:41:22.746Z,42.80
2019-01-16T17:43:36.872Z,44.47
2019-01-16T17:45:51.156Z,43.10
2019-01-16T17:47:59.198Z,40.53
2019-01-16T17:50:13.874Z,37.67
2019-01-16T17:52:38.911Z,49.10
2019-01-16T17:54:59.277Z,40.07
2019-01-16T17:57:07.179Z,49.03
2019-01-16T17:59:15.635Z,38.27
2019-01-16T18:01:20.986Z,30.87
2019-01-16T18:03:32.131Z,32.53
2019-01-16T18:05:43.214Z,31.63
2019-01-16T18:08:03.334Z,27.53
2019-01-16T18:10:17.230Z,27.60
2019-01-16T18:12:31.326Z,30.47
2019-01-16T18:14:39.447Z,31.37
2019-01-16T18:16:47.217Z,27.80
2019-01-16T18:19:08.644Z,27.63
2019-01-16T18:21:22.627Z,30.43
2019-01-16T18:23:27.877Z,25.90
2019-01-16T18:25:35.806Z,24.97
2019-01-16T18:27:41.079Z,23.67
2019-01-16T18:29:46.340Z,26.73
2019-01-16T18:32:06.721Z,26.63
2019-01-16T18:34:20.823Z,29.13
2019-01-16T18:36:26.073Z,27.77
2019-01-16T18:38:33.873Z,24.83
2019-01-16T18:40:39.170Z,30.10
2019-01-16T18:42:44.444Z,29.13
2019-01-16T18:44:58.397Z,27.10
2019-01-16T18:47:03.641Z,29.97
2019-01-16T18:49:11.785Z,31.97
2019-01-16T18:51:31.874Z,30.07
2019-01-16T18:53:37.143Z,28.53
2019-01-16T18:55:44.943Z,25.83
2019-01-16T18:57:52.850Z,29.23
2019-01-16T18:59:58.108Z,25.40
2019-01-16T19:02:18.151Z,23.13
2019-01-16T19:04:23.423Z,26.57
2019-01-16T19:06:28.673Z,25.70
2019-01-16T19:08:50.141Z,23.87
2019-01-16T19:11:01.066Z,26.27
2019-01-16T19:13:18.259Z,27.17
2019-01-16T19:15:32.294Z,24.73
2019-01-16T19:17:37.566Z,24.80
2019-01-16T19:19:58.172Z,25.80
2019-01-16T19:22:03.409Z,28.20
2019-01-16T19:24:23.785Z,27.20
2019-01-16T19:26:34.733Z,23.83
2019-01-16T19:28:39.971Z,27.03
2019-01-16T19:31:01.722Z,32.77
2019-01-16T19:33:09.561Z,36.43
2019-01-16T19:35:17.598Z,29.73
2019-01-16T19:37:38.022Z,27.37
2019-01-16T19:39:49.039Z,26.53
2019-01-16T19:41:57.191Z,26.83
2019-01-16T19:44:02.431Z,26.90
2019-01-16T19:46:23.702Z,27.17
2019-01-16T19:48:40.959Z,31.90
2019-01-16T19:51:04.449Z,22.60
2019-01-16T19:53:09.694Z,33.67
2019-01-16T19:55:15.665Z,30.43
2019-01-16T19:57:29.542Z,42.03
2019-01-16T19:59:47.049Z,33.27
2019-01-16T20:02:08.637Z,25.37
2019-01-16T20:04:13.965Z,20.93
2019-01-16T20:06:34.318Z,24.27
2019-01-16T20:08:51.446Z,20.20
2019-01-16T20:11:05.641Z,19.87
2019-01-16T20:13:10.894Z,22.60
2019-01-16T20:15:22.502Z,21.00
2019-01-16T20:17:43.790Z,19.80
2019-01-16T20:20:05.329Z,25.27
2019-01-16T20:22:22.550Z,25.70
2019-01-16T20:24:30.399Z,25.70
2019-01-16T20:26:44.610Z,27.53
2019-01-16T20:29:01.764Z,25.47
2019-01-16T20:31:23.307Z,27.07
2019-01-16T20:33:40.251Z,25.27
2019-01-16T20:35:48.262Z,28.00
2019-01-16T20:37:59.406Z,26.20
2019-01-16T20:40:19.919Z,22.13
2019-01-16T20:42:41.256Z,24.60
2019-01-16T20:44:49.289Z,23.73
2019-01-16T20:47:10.703Z,22.80
2019-01-16T20:49:28.139Z,20.43
2019-01-16T20:51:49.738Z,22.53
2019-01-16T20:54:10.923Z,26.20
2019-01-16T20:56:16.162Z,21.37
2019-01-16T20:58:24.255Z,26.83
2019-01-16T21:00:38.469Z,25.53
2019-01-16T21:02:58.599Z,26.10
2019-01-16T21:05:19.027Z,22.80
2019-01-16T21:07:24.287Z,21.80
2019-01-16T21:09:45.621Z,20.23
2019-01-16T21:12:09.022Z,20.23
2019-01-16T21:14:20.003Z,24.03
2019-01-16T21:16:41.563Z,22.10
2019-01-16T21:18:55.263Z,23.27
2019-01-16T21:21:16.575Z,27.00
2019-01-16T21:23:36.519Z,25.17
2019-01-16T21:25:41.786Z,23.40
2019-01-16T21:27:56.090Z,28.77
2019-01-16T21:30:17.630Z,28.87
2019-01-16T21:32:31.622Z,23.57
2019-01-16T21:34:52.115Z,20.50
2019-01-16T21:37:15.591Z,22.47
2019-01-16T21:39:20.834Z,22.47
2019-01-16T21:41:28.600Z,21.63
2019-01-16T21:43:49.978Z,23.53
2019-01-16T21:45:55.243Z,20.53
2019-01-16T21:48:18.991Z,21.17
2019-01-16T21:50:36.018Z,22.63
2019-01-16T21:52:50.222Z,21.27
2019-01-16T21:55:10.343Z,20.33
2019-01-16T21:57:31.726Z,22.27
2019-01-16T21:59:45.786Z,19.13
2019-01-16T22:01:59.850Z,19.23
2019-01-16T22:04:05.084Z,21.63
2019-01-16T22:06:10.331Z,23.77
2019-01-16T22:08:15.641Z,23.07
2019-01-16T22:10:29.399Z,26.13
2019-01-16T22:12:40.518Z,30.07
2019-01-16T22:15:00.506Z,27.47
2019-01-16T22:17:11.666Z,26.70
2019-01-16T22:19:19.465Z,30.07
2019-01-16T22:21:24.703Z,24.93
2019-01-16T22:23:36.647Z,26.93
2019-01-16T22:25:42.632Z,25.03
2019-01-16T22:27:47.937Z,26.57
2019-01-16T22:30:01.720Z,25.87
2019-01-16T22:32:25.130Z,25.70
2019-01-16T22:34:39.567Z,27.33
2019-01-16T22:36:56.602Z,26.23
2019-01-16T22:39:01.935Z,28.80
2019-01-16T22:41:15.801Z,27.33
2019-01-16T22:43:27.858Z,26.60
2019-01-16T22:45:51.393Z,29.63
2019-01-16T22:48:12.679Z,29.00
2019-01-16T22:50:35.925Z,27.97
2019-01-16T22:52:41.276Z,26.50
2019-01-16T22:54:58.719Z,27.07
2019-01-16T22:57:03.973Z,27.97
2019-01-16T22:59:11.723Z,28.77
2019-01-16T23:01:18.482Z,30.13
2019-01-16T23:03:29.786Z,29.23
2019-01-16T23:05:35.054Z,33.43
2019-01-16T23:07:45.851Z,33.33
2019-01-16T23:09:51.120Z,31.13
2019-01-16T23:12:08.562Z,33.40
2019-01-16T23:14:22.852Z,35.03
2019-01-16T23:16:46.413Z,39.53
2019-01-16T23:18:51.651Z,38.90
2019-01-16T23:20:56.928Z,42.83
2019-01-16T23:23:02.153Z,38.87
2019-01-16T23:25:23.866Z,42.63
2019-01-16T23:27:44.017Z,37.10
2019-01-16T23:29:50.369Z,37.03
2019-01-16T23:31:55.807Z,43.17
2019-01-16T23:34:06.704Z,39.17
2019-01-16T23:36:14.903Z,39.53
2019-01-16T23:38:32.002Z,39.67
2019-01-16T23:40:37.274Z,37.67
2019-01-16T23:42:51.429Z,41.80
2019-01-16T23:44:59.460Z,38.60
2019-01-16T23:47:13.773Z,33.10
2019-01-16T23:49:34.069Z,35.67
2019-01-16T23:51:55.650Z,32.03
2019-01-16T23:54:00.890Z,33.37
2019-01-16T23:56:06.121Z,30.83
2019-01-16T23:58:13.872Z,27.80
